Time;durP1;ratioP1;P1;durP2;ratioP2;P2;SDS_P1;SDS_P2;PMS_P1;PMS_P2;Temp;Humidity;BMP_temperature;BMP_pressure;BME280_temperature;BME280_humidity;BME280_pressure;Samples;Min_cycle;Max_cycle;Signal;HPM_P1;HPM_P2
2022/12/21 00:00:52;;;;;;;32.57;14.10;;;;;;;-142.25;100.00;58004.16;4948005;28;20867;-69
2022/12/21 00:03:18;;;;;;;37.33;16.07;;;;;;;-142.25;100.00;58004.16;4965525;28;20105;-69
2022/12/21 00:05:43;;;;;;;34.50;16.53;;;;;;;-142.25;100.00;58004.16;4964337;28;20041;-68
2022/12/21 00:08:09;;;;;;;36.27;15.70;;;;;;;-142.25;100.00;58004.16;4964044;28;20123;-70
2022/12/21 00:10:36;;;;;;;36.53;14.43;;;;;;;-142.25;100.00;58004.16;4967808;28;20050;-70
2022/12/21 00:13:11;;;;;;;35.57;15.30;;;;;;;-142.25;100.00;58004.16;4960742;28;20093;-68
2022/12/21 00:15:37;;;;;;;38.83;15.60;;;;;;;-142.25;100.00;58004.16;4963374;28;20035;-68
2022/12/21 00:18:02;;;;;;;38.53;18.17;;;;;;;-142.25;100.00;58004.16;4965336;28;20054;-68
2022/12/21 00:20:28;;;;;;;44.27;16.07;;;;;;;-142.25;100.00;58004.16;4965881;28;20216;-68
2022/12/21 00:22:54;;;;;;;39.37;15.83;;;;;;;-142.25;100.00;58004.16;4964905;28;20175;-68
2022/12/21 00:25:19;;;;;;;38.60;16.10;;;;;;;-142.25;100.00;58004.16;4961622;28;20649;-68
2022/12/21 00:27:45;;;;;;;38.80;14.80;;;;;;;-142.25;100.00;58004.16;4959880;28;20098;-68
2022/12/21 00:30:11;;;;;;;44.97;16.50;;;;;;;-142.25;100.00;58004.16;4966220;28;20263;-68
2022/12/21 00:32:36;;;;;;;51.43;18.87;;;;;;;-142.25;100.00;58004.16;4965743;28;20662;-67
2022/12/21 00:35:02;;;;;;;40.37;15.63;;;;;;;-142.25;100.00;58004.16;4966157;28;20398;-68
2022/12/21 00:37:28;;;;;;;37.90;17.97;;;;;;;-142.25;100.00;58004.16;4965494;28;20179;-67
2022/12/21 00:39:53;;;;;;;45.73;18.40;;;;;;;-142.25;100.00;58004.16;4966818;28;20046;-67
2022/12/21 00:42:21;;;;;;;43.50;16.70;;;;;;;-142.25;100.00;58004.16;4972315;28;20054;-69
2022/12/21 00:44:46;;;;;;;41.73;16.00;;;;;;;-142.25;100.00;58004.16;4966167;28;20390;-67
2022/12/21 00:47:13;;;;;;;37.73;15.17;;;;;;;-142.25;100.00;58004.16;4970911;28;20417;-68
2022/12/21 00:49:38;;;;;;;44.33;16.67;;;;;;;-142.25;100.00;58004.16;4966179;28;20070;-67
2022/12/21 00:52:04;;;;;;;40.47;16.23;;;;;;;-142.25;100.00;58004.16;4964487;28;20609;-67
2022/12/21 00:54:30;;;;;;;38.30;15.67;;;;;;;-142.25;100.00;58004.16;4963834;28;20100;-69
2022/12/21 00:56:56;;;;;;;39.37;16.83;;;;;;;-142.25;100.00;58004.16;4965109;28;20413;-68
2022/12/21 00:59:22;;;;;;;38.40;17.10;;;;;;;-142.25;100.00;58004.16;4965435;28;20042;-66
2022/12/21 01:01:47;;;;;;;34.37;16.80;;;;;;;-142.25;100.00;58004.16;4965667;28;20078;-71
2022/12/21 01:04:13;;;;;;;39.77;15.07;;;;;;;-142.25;100.00;58004.16;4973500;28;20146;-68
2022/12/21 01:06:38;;;;;;;37.77;15.70;;;;;;;-142.25;100.00;58004.16;4968294;28;20042;-68
2022/12/21 01:09:06;;;;;;;35.17;15.13;;;;;;;-142.25;100.00;58004.16;4965419;28;20462;-68
2022/12/21 01:11:32;;;;;;;37.80;15.97;;;;;;;-142.25;100.00;58004.16;4966325;28;20051;-67
2022/12/21 01:13:57;;;;;;;37.90;16.93;;;;;;;-142.25;100.00;58004.16;4964082;28;20046;-67
2022/12/21 01:16:27;;;;;;;42.40;17.50;;;;;;;-142.25;100.00;58004.16;4980039;28;20127;-68
2022/12/21 01:18:53;;;;;;;34.47;16.27;;;;;;;-142.25;100.00;58004.16;4969752;28;20047;-68
2022/12/21 01:21:24;;;;;;;44.77;16.70;;;;;;;-142.25;100.00;58004.16;4964873;28;20070;-68
2022/12/21 01:23:50;;;;;;;36.30;17.27;;;;;;;-142.25;100.00;58004.16;4963789;28;20781;-68
2022/12/21 01:26:17;;;;;;;38.03;17.00;;;;;;;-142.25;100.00;58004.16;4964550;28;20039;-68
2022/12/21 01:28:43;;;;;;;37.77;16.83;;;;;;;-142.25;100.00;58004.16;4962087;28;20046;-68
2022/12/21 01:31:10;;;;;;;42.03;18.37;;;;;;;-142.25;100.00;58004.16;4963615;28;20037;-68
2022/12/21 01:33:36;;;;;;;40.23;16.40;;;;;;;-142.25;100.00;58004.16;4966344;28;20051;-70
2022/12/21 01:36:10;;;;;;;38.40;15.57;;;;;;;-142.25;100.00;58004.16;4966128;28;20047;-67
2022/12/21 01:38:39;;;;;;;36.67;16.33;;;;;;;-142.25;100.00;58004.16;4960087;28;20074;-68
2022/12/21 01:41:06;;;;;;;37.87;16.70;;;;;;;-142.25;100.00;58004.16;4964822;28;20149;-70
2022/12/21 01:43:52;;;;;;;42.77;19.07;;;;;;;-142.25;100.00;58004.16;4964083;28;20050;-68
2022/12/21 01:46:41;;;;;;;42.78;18.58;;;;;;;-142.25;100.00;58004.16;4976789;28;20043;-69
2022/12/21 01:49:26;;;;;;;43.23;16.23;;;;;;;-142.25;100.00;58004.16;4976202;28;20049;-68
2022/12/21 01:51:59;;;;;;;41.88;16.10;;;;;;;-142.25;100.00;58004.16;4964224;28;20043;-67
2022/12/21 01:54:33;;;;;;;38.33;16.47;;;;;;;-142.25;100.00;58004.16;4963366;28;20042;-68
2022/12/21 01:57:07;;;;;;;45.90;17.27;;;;;;;-142.25;100.00;58004.16;4978446;28;20174;-68
2022/12/21 01:59:36;;;;;;;44.13;17.50;;;;;;;-142.25;100.00;58004.16;4969648;28;20047;-68
2022/12/21 02:02:06;;;;;;;45.00;16.40;;;;;;;-142.25;100.00;58004.16;4968160;28;20058;-68
2022/12/21 02:04:32;;;;;;;44.00;16.47;;;;;;;-142.25;100.00;58004.16;4963844;28;20340;-67
2022/12/21 02:06:59;;;;;;;49.00;17.90;;;;;;;-142.25;100.00;58004.16;4964326;28;20054;-68
2022/12/21 02:09:32;;;;;;;44.67;17.57;;;;;;;-142.25;100.00;58004.16;4965235;28;20139;-68
2022/12/21 02:12:00;;;;;;;44.47;16.10;;;;;;;-142.25;100.00;58004.16;4967908;28;20050;-68
2022/12/21 02:14:28;;;;;;;39.83;15.37;;;;;;;-142.25;100.00;58004.16;4962915;28;20042;-71
2022/12/21 02:17:31;;;;;;;41.37;18.17;;;;;;;-142.25;100.00;58004.16;4963199;28;20035;-67
2022/12/21 02:20:27;;;;;;;43.30;16.60;;;;;;;-142.25;100.00;58004.16;4962646;28;20101;-69
2022/12/21 02:23:07;;;;;;;;;;;;;;;-142.25;100.00;58004.16;4979764;28;20129;-69
2022/12/21 02:25:56;;;;;;;42.63;14.63;;;;;;;-142.25;100.00;58004.16;4961313;28;20317;-67
2022/12/21 02:28:45;;;;;;;39.33;16.27;;;;;;;-142.25;100.00;58004.16;4965258;28;20042;-71
2022/12/21 02:31:37;;;;;;;47.00;17.83;;;;;;;-142.25;100.00;58004.16;4964851;28;20074;-69
2022/12/21 02:34:17;;;;;;;40.87;16.53;;;;;;;-142.25;100.00;58004.16;4967052;28;20043;-67
2022/12/21 02:37:10;;;;;;;45.00;17.43;;;;;;;-142.25;100.00;58004.16;4963261;28;20081;-67
2022/12/21 02:40:03;;;;;;;40.17;16.37;;;;;;;-142.25;100.00;58004.16;4976189;28;20081;-67
2022/12/21 02:45:33;;;;;;;35.70;14.27;;;;;;;-142.25;100.00;58004.16;4960018;28;20047;-68
2022/12/21 02:48:07;;;;;;;31.67;15.07;;;;;;;-142.25;100.00;58004.16;4967289;28;20034;-67
2022/12/21 02:50:39;;;;;;;36.20;14.82;;;;;;;-142.25;100.00;58004.16;4962863;28;20046;-69
2022/12/21 02:53:16;;;;;;;43.17;15.60;;;;;;;-142.25;100.00;58004.16;4963028;28;20046;-70
2022/12/21 02:55:45;;;;;;;43.37;17.50;;;;;;;-142.25;100.00;58004.16;4954042;28;20081;-67
2022/12/21 02:58:22;;;;;;;38.80;15.00;;;;;;;-142.25;100.00;58004.16;4959185;28;20081;-68
2022/12/21 03:00:51;;;;;;;41.77;15.37;;;;;;;-142.25;100.00;58004.16;4970023;28;20042;-70
2022/12/21 03:03:48;;;;;;;34.37;15.57;;;;;;;-142.25;100.00;58004.16;4980051;28;20452;-68
2022/12/21 03:06:39;;;;;;;39.15;16.85;;;;;;;-142.25;100.00;58004.16;4898142;29;20175;-70
2022/12/21 03:09:26;;;;;;;41.13;16.87;;;;;;;-142.25;100.00;58004.16;4923467;29;20051;-68
2022/12/21 03:12:02;;;;;;;42.23;17.13;;;;;;;-142.25;100.00;58004.16;4907295;29;20290;-67
2022/12/21 03:14:40;;;;;;;41.60;15.90;;;;;;;-142.25;100.00;58004.16;4927428;29;20055;-68
2022/12/21 03:17:15;;;;;;;43.63;17.77;;;;;;;-142.25;100.00;58004.16;4922869;29;20052;-67
2022/12/21 03:20:06;;;;;;;43.10;16.07;;;;;;;-142.25;100.00;58004.16;4907427;29;20172;-64
2022/12/21 03:22:42;;;;;;;47.90;18.00;;;;;;;-142.25;100.00;58004.16;4925248;29;20184;-70
2022/12/21 03:25:28;;;;;;;33.70;15.23;;;;;;;-142.25;100.00;58004.16;4924686;29;20388;-70
2022/12/21 03:27:59;;;;;;;40.73;15.03;;;;;;;-142.25;100.00;58004.16;4905598;29;20047;-71
2022/12/21 03:30:27;;;;;;;43.00;17.40;;;;;;;-142.25;100.00;58004.16;4923472;29;20495;-71
2022/12/21 03:32:59;;;;;;;40.00;15.37;;;;;;;-142.25;100.00;58004.16;4924098;29;20056;-69
2022/12/21 03:35:29;;;;;;;46.57;17.70;;;;;;;-142.25;100.00;58004.16;4916600;29;20047;-71
2022/12/21 03:37:56;;;;;;;45.70;17.57;;;;;;;-142.25;100.00;58004.16;4925469;29;20083;-71
2022/12/21 03:40:25;;;;;;;43.37;16.90;;;;;;;-142.25;100.00;58004.16;4924374;28;20061;-70
2022/12/21 03:43:37;;;;;;;46.57;18.27;;;;;;;-142.25;100.00;58004.16;4937370;28;20051;-70
2022/12/21 03:46:17;;;;;;;45.53;17.87;;;;;;;-142.25;100.00;58004.16;4961105;28;20058;-71
2022/12/21 03:49:12;;;;;;;44.00;18.17;;;;;;;-142.25;100.00;58004.16;4965023;28;20462;-70
2022/12/21 03:51:50;;;;;;;38.47;17.23;;;;;;;-142.25;100.00;58004.16;4948099;28;20141;-72
2022/12/21 03:54:40;;;;;;;49.57;17.37;;;;;;;-142.25;100.00;58004.16;4967931;28;20564;-70
2022/12/21 03:57:07;;;;;;;49.07;17.90;;;;;;;-142.25;100.00;58004.16;4967867;28;20042;-72
2022/12/21 03:59:34;;;;;;;44.40;18.13;;;;;;;-142.25;100.00;58004.16;4972118;28;20141;-71
2022/12/21 04:02:14;;;;;;;51.40;19.03;;;;;;;-142.25;100.00;58004.16;4967705;28;20055;-73
2022/12/21 04:04:46;;;;;;;42.30;18.53;;;;;;;-142.25;100.00;58004.16;4960319;28;20049;-72
2022/12/21 04:07:15;;;;;;;46.40;19.53;;;;;;;-142.25;100.00;58004.16;4968290;28;20124;-72
2022/12/21 04:09:41;;;;;;;50.60;17.93;;;;;;;-142.25;100.00;58004.16;4969462;28;20126;-74
2022/12/21 04:14:51;;;;;;;45.63;18.37;;;;;;;-142.25;100.00;58004.16;4969201;28;20112;-72
2022/12/21 04:17:17;;;;;;;48.87;18.43;;;;;;;-142.25;100.00;58004.16;4981137;28;20046;-72
2022/12/21 04:19:58;;;;;;;44.27;18.47;;;;;;;-142.25;100.00;58004.16;4968720;28;20120;-66
2022/12/21 04:28:07;;;;;;;31.70;13.55;;;;;;;-142.25;100.00;58004.16;4974170;28;20046;-69
2022/12/21 04:30:44;;;;;;;46.72;15.60;;;;;;;-142.25;100.00;58004.16;4970843;28;20436;-67
2022/12/21 04:33:13;;;;;;;46.60;19.60;;;;;;;-142.25;100.00;58004.16;4969038;28;20070;-73
2022/12/21 04:38:31;;;;;;;45.13;16.73;;;;;;;-142.25;100.00;58004.16;4944794;28;20137;-64
2022/12/21 04:40:57;;;;;;;52.30;19.37;;;;;;;-142.25;100.00;58004.16;4957590;28;20521;-65
2022/12/21 04:43:24;;;;;;;47.33;19.13;;;;;;;-142.25;100.00;58004.16;4955140;28;20989;-67
2022/12/21 04:45:58;;;;;;;43.00;17.13;;;;;;;-142.25;100.00;58004.16;4958005;28;20053;-66
2022/12/21 04:48:23;;;;;;;49.33;17.10;;;;;;;-142.25;100.00;58004.16;4958695;28;20075;-64
2022/12/21 04:50:49;;;;;;;52.13;18.57;;;;;;;-142.25;100.00;58004.16;4960551;28;20527;-64
2022/12/21 04:53:14;;;;;;;51.67;19.30;;;;;;;-142.25;100.00;58004.16;4960731;28;20202;-66
2022/12/21 04:55:45;;;;;;;41.63;17.10;;;;;;;-142.25;100.00;58004.16;4962083;28;20066;-65
2022/12/21 04:58:11;;;;;;;59.07;20.53;;;;;;;-142.25;100.00;58004.16;4962424;28;20589;-66
2022/12/21 05:00:37;;;;;;;39.97;17.00;;;;;;;-142.25;100.00;58004.16;4946875;28;20517;-65
2022/12/21 05:03:03;;;;;;;44.27;18.40;;;;;;;-142.25;100.00;58004.16;4953172;28;20058;-65
2022/12/21 05:05:29;;;;;;;46.17;17.90;;;;;;;-142.25;100.00;58004.16;4955939;28;20055;-64
2022/12/21 05:07:55;;;;;;;48.93;19.87;;;;;;;-142.25;100.00;58004.16;4952999;28;20058;-64
2022/12/21 05:10:21;;;;;;;43.77;17.60;;;;;;;-142.25;100.00;58004.16;4954737;28;20096;-64
2022/12/21 05:12:47;;;;;;;41.77;18.00;;;;;;;-142.25;100.00;58004.16;4953138;28;20601;-64
2022/12/21 05:15:13;;;;;;;46.23;17.67;;;;;;;-142.25;100.00;58004.16;4960704;28;20792;-65
2022/12/21 05:17:42;;;;;;;51.53;18.40;;;;;;;-142.25;100.00;58004.16;4965800;28;20034;-65
2022/12/21 05:20:07;;;;;;;57.77;19.93;;;;;;;-142.25;100.00;58004.16;4966323;28;20047;-65
2022/12/21 05:22:36;;;;;;;44.47;16.60;;;;;;;-142.25;100.00;58004.16;4979413;28;20051;-64
2022/12/21 05:25:02;;;;;;;50.93;17.97;;;;;;;-142.25;100.00;58004.16;4964182;28;20038;-64
2022/12/21 05:27:27;;;;;;;48.50;17.93;;;;;;;-142.25;100.00;58004.16;4960062;28;20039;-63
2022/12/21 05:29:53;;;;;;;42.53;18.13;;;;;;;-142.25;100.00;58004.16;4966368;28;20450;-64
2022/12/21 05:32:19;;;;;;;50.97;18.23;;;;;;;-142.25;100.00;58004.16;4968046;28;20831;-66
2022/12/21 05:34:44;;;;;;;43.13;16.97;;;;;;;-142.25;100.00;58004.16;4963938;28;20039;-65
2022/12/21 05:37:10;;;;;;;43.03;16.63;;;;;;;-142.25;100.00;58004.16;4962299;28;20055;-66
2022/12/21 05:39:35;;;;;;;42.40;17.33;;;;;;;-142.25;100.00;58004.16;4965496;28;20866;-65
2022/12/21 05:42:02;;;;;;;37.97;16.33;;;;;;;-142.25;100.00;58004.16;4967950;28;20121;-65
2022/12/21 05:44:28;;;;;;;44.83;18.30;;;;;;;-142.25;100.00;58004.16;4969379;28;20044;-66
2022/12/21 05:46:54;;;;;;;41.10;19.03;;;;;;;-142.25;100.00;58004.16;4954722;28;20046;-67
2022/12/21 05:49:20;;;;;;;47.33;17.30;;;;;;;-142.25;100.00;58004.16;4964806;28;20438;-67
2022/12/21 05:51:46;;;;;;;36.57;16.83;;;;;;;-142.25;100.00;58004.16;4965195;28;20055;-69
2022/12/21 05:54:13;;;;;;;43.07;18.07;;;;;;;-142.25;100.00;58004.16;4961710;28;20492;-71
2022/12/21 05:56:39;;;;;;;49.03;19.97;;;;;;;-142.25;100.00;58004.16;4963822;28;20134;-70
2022/12/21 05:59:04;;;;;;;48.00;19.87;;;;;;;-142.25;100.00;58004.16;4964559;28;20051;-72
2022/12/21 06:01:30;;;;;;;45.07;19.40;;;;;;;-142.25;100.00;58004.16;4963789;28;20102;-71
2022/12/21 06:03:55;;;;;;;46.77;18.47;;;;;;;-142.25;100.00;58004.16;4964756;28;20085;-69
2022/12/21 06:06:21;;;;;;;52.27;19.03;;;;;;;-142.25;100.00;58004.16;4967241;28;20047;-72
2022/12/21 06:08:46;;;;;;;52.17;18.60;;;;;;;-142.25;100.00;58004.16;4963784;28;20058;-67
2022/12/21 06:11:18;;;;;;;41.30;16.20;;;;;;;-142.25;100.00;58004.16;4963078;28;20380;-69
2022/12/21 06:13:44;;;;;;;42.13;17.73;;;;;;;-142.25;100.00;58004.16;4961535;28;20051;-68
2022/12/21 06:16:14;;;;;;;49.53;19.83;;;;;;;-142.25;100.00;58004.16;4966508;28;20046;-71
2022/12/21 06:18:40;;;;;;;47.67;21.07;;;;;;;-142.25;100.00;58004.16;4976629;28;20468;-69
2022/12/21 06:21:09;;;;;;;51.47;18.60;;;;;;;-142.25;100.00;58004.16;4960240;28;20063;-68
2022/12/21 06:23:35;;;;;;;46.40;17.40;;;;;;;-142.25;100.00;58004.16;4968749;28;20050;-69
2022/12/21 06:26:03;;;;;;;40.17;17.83;;;;;;;-142.25;100.00;58004.16;4966733;28;20046;-69
2022/12/21 06:28:30;;;;;;;43.53;17.43;;;;;;;-142.25;100.00;58004.16;4963260;28;20475;-69
2022/12/21 06:31:05;;;;;;;48.10;18.00;;;;;;;-142.25;100.00;58004.16;4965622;28;20090;-69
2022/12/21 06:33:31;;;;;;;;;;;;;;;-142.25;100.00;58004.16;4963749;28;20101;-70
2022/12/21 06:35:57;;;;;;;48.27;18.23;;;;;;;-142.25;100.00;58004.16;4968283;28;19922;-71
2022/12/21 06:38:24;;;;;;;47.43;16.60;;;;;;;-142.25;100.00;58004.16;4963734;28;20051;-68
2022/12/21 06:40:57;;;;;;;44.87;20.43;;;;;;;-142.25;100.00;58004.16;4963306;28;20081;-69
2022/12/21 06:43:29;;;;;;;49.63;18.53;;;;;;;-142.25;100.00;58004.16;4977517;28;20522;-69
2022/12/21 06:45:56;;;;;;;44.27;19.60;;;;;;;-142.25;100.00;58004.16;4963474;28;20543;-75
2022/12/21 06:48:22;;;;;;;42.77;18.27;;;;;;;-142.25;100.00;58004.16;4963218;28;20055;-69
2022/12/21 06:51:12;;;;;;;42.30;17.40;;;;;;;-142.25;100.00;58004.16;4962248;28;20111;-69
2022/12/21 06:53:39;;;;;;;41.73;17.03;;;;;;;-142.25;100.00;58004.16;4960372;28;20038;-70
2022/12/21 06:56:11;;;;;;;45.20;18.43;;;;;;;-142.25;100.00;58004.16;4957934;28;20065;-70
2022/12/21 06:58:37;;;;;;;37.70;15.87;;;;;;;-142.25;100.00;58004.16;4964516;28;20047;-69
2022/12/21 07:01:14;;;;;;;43.70;16.50;;;;;;;-142.25;100.00;58004.16;4966459;28;20443;-69
2022/12/21 07:03:41;;;;;;;46.77;17.97;;;;;;;-142.25;100.00;58004.16;4964061;28;20043;-68
2022/12/21 07:06:07;;;;;;;41.50;17.03;;;;;;;-142.25;100.00;58004.16;4961643;28;20032;-68
2022/12/21 07:08:33;;;;;;;41.23;16.73;;;;;;;-142.25;100.00;58004.16;4961893;28;20438;-68
2022/12/21 07:11:00;;;;;;;45.37;17.63;;;;;;;-142.25;100.00;58004.16;4959921;28;20061;-69
2022/12/21 07:13:26;;;;;;;38.57;15.77;;;;;;;-142.25;100.00;58004.16;4959318;28;20058;-70
2022/12/21 07:15:53;;;;;;;45.60;17.60;;;;;;;-142.25;100.00;58004.16;4963877;28;20139;-69
2022/12/21 07:18:18;;;;;;;47.63;18.97;;;;;;;-142.25;100.00;58004.16;4963233;28;20440;-70
2022/12/21 07:20:44;;;;;;;51.37;16.90;;;;;;;-142.25;100.00;58004.16;4962776;28;20047;-68
2022/12/21 07:23:10;;;;;;;50.20;19.13;;;;;;;-142.25;100.00;58004.16;4964008;28;20454;-70
2022/12/21 07:25:36;;;;;;;43.90;16.63;;;;;;;-142.25;100.00;58004.16;4965264;28;20913;-69
2022/12/21 07:28:01;;;;;;;52.40;19.10;;;;;;;-142.25;100.00;58004.16;4965981;28;20113;-72
2022/12/21 07:30:27;;;;;;;43.60;18.07;;;;;;;-142.25;100.00;58004.16;4969625;28;20036;-71
2022/12/21 07:32:53;;;;;;;37.70;16.47;;;;;;;-142.25;100.00;58004.16;4969346;28;20043;-69
2022/12/21 07:35:21;;;;;;;43.97;14.97;;;;;;;-142.25;100.00;58004.16;4970137;28;20088;-70
2022/12/21 07:37:48;;;;;;;31.37;13.17;;;;;;;-142.25;100.00;58004.16;4965483;28;20097;-67
2022/12/21 07:40:15;;;;;;;46.17;16.90;;;;;;;-142.25;100.00;58004.16;4967911;28;20319;-68
2022/12/21 07:42:42;;;;;;;42.07;18.67;;;;;;;-142.25;100.00;58004.16;4966888;28;20054;-71
2022/12/21 07:45:21;;;;;;;41.60;16.17;;;;;;;-142.25;100.00;58004.16;4971509;28;20122;-68
2022/12/21 07:47:48;;;;;;;38.50;14.77;;;;;;;-142.25;100.00;58004.16;4968194;28;20400;-69
2022/12/21 07:50:14;;;;;;;38.70;14.43;;;;;;;-142.25;100.00;58004.16;4968987;28;20031;-68
2022/12/21 07:52:39;;;;;;;36.10;14.90;;;;;;;-142.25;100.00;58004.16;4966877;28;20110;-68
2022/12/21 07:55:07;;;;;;;39.73;15.80;;;;;;;-142.25;100.00;58004.16;4966283;28;20121;-68
2022/12/21 07:57:33;;;;;;;43.23;14.13;;;;;;;-142.25;100.00;58004.16;4966454;28;20047;-69
2022/12/21 07:59:58;;;;;;;47.67;16.97;;;;;;;-142.25;100.00;58004.16;4963287;28;20043;-68
2022/12/21 08:02:24;;;;;;;39.27;16.27;;;;;;;-142.25;100.00;58004.16;4976964;28;20057;-69
2022/12/21 08:04:50;;;;;;;45.23;18.10;;;;;;;-142.25;100.00;58004.16;4966529;28;20466;-68
2022/12/21 08:07:15;;;;;;;41.33;15.70;;;;;;;-142.25;100.00;58004.16;4965478;28;20474;-70
2022/12/21 08:09:41;;;;;;;40.23;15.03;;;;;;;-142.25;100.00;58004.16;4964554;28;20436;-68
2022/12/21 08:12:06;;;;;;;34.33;15.67;;;;;;;-142.25;100.00;58004.16;4966363;28;20058;-67
2022/12/21 08:14:32;;;;;;;41.70;16.00;;;;;;;-142.25;100.00;58004.16;4965795;28;20716;-67
2022/12/21 08:16:59;;;;;;;37.67;16.70;;;;;;;-142.25;100.00;58004.16;4966116;28;20050;-68
2022/12/21 08:19:25;;;;;;;27.60;13.53;;;;;;;-142.25;100.00;58004.16;4965906;28;20039;-69
2022/12/21 08:21:51;;;;;;;41.30;15.37;;;;;;;-142.25;100.00;58004.16;4965487;28;20054;-69
2022/12/21 08:24:16;;;;;;;31.37;13.90;;;;;;;-142.25;100.00;58004.16;4961996;28;20093;-68
2022/12/21 08:26:42;;;;;;;35.10;13.70;;;;;;;-142.25;100.00;58004.16;4964298;28;20282;-69
2022/12/21 08:29:12;;;;;;;32.83;12.73;;;;;;;-142.25;100.00;58004.16;4959753;28;20043;-69
2022/12/21 08:31:38;;;;;;;38.03;14.13;;;;;;;-142.25;100.00;58004.16;4962074;28;20048;-70
2022/12/21 08:34:05;;;;;;;35.67;15.63;;;;;;;-142.25;100.00;58004.16;4961349;28;20080;-61
2022/12/21 08:36:31;;;;;;;32.77;14.17;;;;;;;-142.25;100.00;58004.16;4959887;28;20050;-69
2022/12/21 08:38:57;;;;;;;33.50;13.67;;;;;;;-142.25;100.00;58004.16;4966054;28;20530;-70
2022/12/21 08:41:23;;;;;;;40.40;15.10;;;;;;;-142.25;100.00;58004.16;4968180;28;20053;-71
2022/12/21 08:43:48;;;;;;;28.23;11.90;;;;;;;-142.25;100.00;58004.16;4964755;28;20047;-69
2022/12/21 08:46:14;;;;;;;39.87;13.57;;;;;;;-142.25;100.00;58004.16;4967082;28;20057;-70
2022/12/21 08:48:40;;;;;;;42.67;14.27;;;;;;;-142.25;100.00;58004.16;4965132;28;20114;-70
2022/12/21 08:51:09;;;;;;;39.67;15.33;;;;;;;-142.25;100.00;58004.16;4952782;28;20043;-71
2022/12/21 08:53:35;;;;;;;42.10;16.57;;;;;;;-142.25;100.00;58004.16;4963500;28;20042;-72
2022/12/21 08:56:02;;;;;;;36.57;15.17;;;;;;;-142.25;100.00;58004.16;4964849;28;20043;-70
2022/12/21 08:58:27;;;;;;;34.37;14.53;;;;;;;-142.25;100.00;58004.16;4966045;28;20047;-72
2022/12/21 09:00:54;;;;;;;36.37;15.13;;;;;;;-142.25;100.00;58004.16;4965056;28;20445;-70
2022/12/21 09:03:21;;;;;;;36.47;14.73;;;;;;;-142.25;100.00;58004.16;4965449;28;20088;-73
2022/12/21 09:05:52;;;;;;;31.77;13.07;;;;;;;-142.25;100.00;58004.16;4965248;28;20035;-71
2022/12/21 09:08:18;;;;;;;33.80;13.63;;;;;;;-142.25;100.00;58004.16;4953617;28;20051;-71
2022/12/21 09:10:44;;;;;;;31.10;13.30;;;;;;;-142.25;100.00;58004.16;4957463;28;20073;-70
2022/12/21 09:13:10;;;;;;;34.03;13.90;;;;;;;-142.25;100.00;58004.16;4962860;28;20153;-70
2022/12/21 09:15:42;;;;;;;33.57;13.93;;;;;;;-142.25;100.00;58004.16;4962147;28;20161;-73
2022/12/21 09:18:12;;;;;;;30.83;13.00;;;;;;;-142.25;100.00;58004.16;4968560;28;20046;-70
2022/12/21 09:20:37;;;;;;;39.13;13.57;;;;;;;-142.25;100.00;58004.16;4953792;28;20525;-71
2022/12/21 09:23:03;;;;;;;38.77;13.10;;;;;;;-142.25;100.00;58004.16;4964218;28;20074;-69
2022/12/21 09:25:29;;;;;;;32.77;13.77;;;;;;;-142.25;100.00;58004.16;4963275;28;20045;-69
2022/12/21 09:27:54;;;;;;;42.93;16.27;;;;;;;-142.25;100.00;58004.16;4962068;28;20050;-70
2022/12/21 09:30:21;;;;;;;33.57;14.30;;;;;;;-142.25;100.00;58004.16;4964299;28;20466;-70
2022/12/21 09:32:47;;;;;;;33.33;13.17;;;;;;;-142.25;100.00;58004.16;4966613;28;20084;-71
2022/12/21 09:35:13;;;;;;;37.70;14.33;;;;;;;-142.25;100.00;58004.16;4966769;28;20039;-69
2022/12/21 09:37:39;;;;;;;34.53;13.53;;;;;;;-142.25;100.00;58004.16;4962623;28;20512;-71
2022/12/21 09:40:09;;;;;;;30.77;13.93;;;;;;;-142.25;100.00;58004.16;4962345;28;20046;-70
2022/12/21 09:43:09;;;;;;;24.40;10.83;;;;;;;-142.25;100.00;58004.16;4959512;28;20039;-70
2022/12/21 09:45:53;;;;;;;33.90;13.57;;;;;;;-142.25;100.00;58004.16;4964731;28;20162;-69
2022/12/21 09:48:35;;;;;;;31.37;12.17;;;;;;;-142.25;100.00;58004.16;4967974;28;20533;-69
2022/12/21 09:51:10;;;;;;;26.00;12.30;;;;;;;-142.25;100.00;58004.16;4964359;28;20042;-70
2022/12/21 09:53:38;;;;;;;30.73;12.97;;;;;;;-142.25;100.00;58004.16;4964340;28;20055;-69
2022/12/21 09:56:07;;;;;;;33.33;12.57;;;;;;;-142.25;100.00;58004.16;4965968;28;20046;-69
2022/12/21 09:58:43;;;;;;;25.43;12.03;;;;;;;-142.25;100.00;58004.16;4963868;28;20050;-70
2022/12/21 10:01:27;;;;;;;26.37;11.73;;;;;;;-142.25;100.00;58004.16;4961771;28;20538;-70
2022/12/21 10:04:11;;;;;;;26.50;11.93;;;;;;;-142.25;100.00;58004.16;4962285;28;20042;-69
2022/12/21 10:06:56;;;;;;;28.77;12.63;;;;;;;-142.25;100.00;58004.16;4958577;28;20067;-70
2022/12/21 10:09:30;;;;;;;27.17;12.47;;;;;;;-142.25;100.00;58004.16;4961991;28;20515;-70
2022/12/21 10:12:09;;;;;;;29.25;13.45;;;;;;;-142.25;100.00;58004.16;4978136;28;20055;-70
2022/12/21 10:14:42;;;;;;;34.97;13.53;;;;;;;-142.25;100.00;58004.16;4961510;28;20047;-69
2022/12/21 10:17:11;;;;;;;37.77;13.70;;;;;;;-142.25;100.00;58004.16;4963812;28;20490;-68
2022/12/21 10:20:02;;;;;;;31.03;13.57;;;;;;;-142.25;100.00;58004.16;4961233;28;20261;-69
2022/12/21 10:22:33;;;;;;;34.87;14.30;;;;;;;-142.25;100.00;58004.16;4960360;28;20039;-72
2022/12/21 10:25:02;;;;;;;28.27;12.47;;;;;;;-142.25;100.00;58004.16;4963308;28;20066;-69
2022/12/21 10:27:46;;;;;;;30.37;14.10;;;;;;;-142.25;100.00;58004.16;4966184;28;20040;-70
2022/12/21 10:30:14;;;;;;;34.10;14.77;;;;;;;-142.25;100.00;58004.16;4964442;28;20098;-68
2022/12/21 10:32:40;;;;;;;35.47;13.53;;;;;;;-142.25;100.00;58004.16;4959946;28;20047;-64
2022/12/21 10:35:30;;;;;;;29.87;12.23;;;;;;;-142.25;100.00;58004.16;4958197;28;20050;-63
2022/12/21 10:37:56;;;;;;;29.50;12.93;;;;;;;-142.25;100.00;58004.16;4962747;28;20097;-70
2022/12/21 10:40:25;;;;;;;29.00;11.63;;;;;;;-142.25;100.00;58004.16;4957854;28;20047;-69
2022/12/21 10:42:53;;;;;;;31.53;13.37;;;;;;;-142.25;100.00;58004.16;4979490;28;20153;-69
2022/12/21 10:45:22;;;;;;;36.33;14.17;;;;;;;-142.25;100.00;58004.16;4963573;28;20046;-70
2022/12/21 10:47:48;;;;;;;32.00;13.03;;;;;;;-142.25;100.00;58004.16;4962594;28;20485;-69
2022/12/21 10:50:30;;;;;;;28.10;13.67;;;;;;;-142.25;100.00;58004.16;4960726;28;20137;-71
2022/12/21 10:52:58;;;;;;;36.07;14.10;;;;;;;-142.25;100.00;58004.16;4963198;28;20050;-70
2022/12/21 10:55:26;;;;;;;28.13;13.17;;;;;;;-142.25;100.00;58004.16;4963101;28;20054;-71
2022/12/21 10:57:55;;;;;;;27.30;12.53;;;;;;;-142.25;100.00;58004.16;4964838;28;20055;-73
2022/12/21 11:00:24;;;;;;;34.27;13.40;;;;;;;-142.25;100.00;58004.16;4963472;28;20077;-70
2022/12/21 11:02:52;;;;;;;48.47;18.63;;;;;;;-142.25;100.00;58004.16;4966433;28;20034;-70
2022/12/21 11:05:26;;;;;;;55.70;21.70;;;;;;;-142.25;100.00;58004.16;4965533;28;20126;-70
2022/12/21 11:07:52;;;;;;;35.58;15.60;;;;;;;-142.25;100.00;58004.16;4968395;28;20129;-71
2022/12/21 11:10:28;;;;;;;35.80;14.40;;;;;;;-142.25;100.00;58004.16;4967790;28;20332;-70
2022/12/21 11:12:54;;;;;;;40.63;18.07;;;;;;;-142.25;100.00;58004.16;4966230;28;20086;-73
2022/12/21 11:15:23;;;;;;;35.50;14.57;;;;;;;-142.25;100.00;58004.16;4967735;28;20125;-71
2022/12/21 11:17:48;;;;;;;31.50;13.67;;;;;;;-142.25;100.00;58004.16;4969250;28;20062;-71
2022/12/21 11:20:19;;;;;;;36.60;15.33;;;;;;;-142.25;100.00;58004.16;4966480;28;20178;-71
2022/12/21 11:22:47;;;;;;;29.27;12.40;;;;;;;-142.25;100.00;58004.16;4966561;28;20051;-70